KCKM/CKM METAR and TAF weather

Enter ICAO airport designator
Station Type Date Time Source
KCKM METAR 2020/10/22 03:55 UTC NOAA

KCKM 220355Z AUTO 12006KT 10SM 21/21 A3010 RMK A01


Station Type Date Time Source
KCKM Decoded METAR 2020/10/22 03:55 UTC NOAA

Station name not available
Oct 21, 2020 - 11:55 PM EDT / 2020.10.22 0355 UTC
Wind: from the ESE (120 degrees) at 7 MPH (6 KT):0
Visibility: 10 mile(s):0
Temperature: 69 F (21 C)
Dew Point: 69 F (21 C)
Relative Humidity: 100%
Pressure (altimeter): 30.1 in. Hg (1019 hPa)
ob: KCKM 220355Z AUTO 12006KT 10SM 21/21 A3010 RMK A01
cycle: 4

Station Type Date Time Source
KCKM TAF UTC NOAA

Error!

Example: see airport list